Time;durP1;ratioP1;P1;durP2;ratioP2;P2;SDS_P1;SDS_P2;PMS_P1;PMS_P2;Temp;Humidity;BMP_temperature;BMP_pressure;BME280_temperature;BME280_humidity;BME280_pressure;Samples;Min_cycle;Max_cycle;Signal;HPM_P1;HPM_P2
2022/12/12 00:00:23;;;;;;;;;;;16.30;36.40;;;;;;8374639;28;19996;-45
2022/12/12 00:04:24;;;;;;;;;;;16.30;36.40;;;;;;8387945;28;19923;-45
2022/12/12 00:08:24;;;;;;;;;;;16.30;36.40;;;;;;8376826;28;19925;-45
2022/12/12 00:12:25;;;;;;;;;;;16.30;36.40;;;;;;8374081;28;19928;-45
2022/12/12 00:16:25;;;;;;;;;;;16.30;36.90;;;;;;8387763;28;20358;-46
2022/12/12 00:20:26;;;;;;;;;;;16.30;36.40;;;;;;8377045;28;20395;-45
2022/12/12 00:24:26;;;;;;;;;;;16.20;36.30;;;;;;8374236;28;19963;-44
2022/12/12 00:28:27;;;;;;;;;;;16.20;36.20;;;;;;8387292;28;19917;-44
2022/12/12 00:32:29;;;;;;;;;;;16.30;36.30;;;;;;8376757;28;19971;-44
2022/12/12 00:36:29;;;;;;;;;;;16.20;36.20;;;;;;8373828;28;19948;-43
2022/12/12 00:40:30;;;;;;;;;;;16.20;36.30;;;;;;8386905;28;19921;-44
2022/12/12 00:44:30;;;;;;;;;;;16.30;36.30;;;;;;8376976;28;19920;-44
2022/12/12 00:48:31;;;;;;;;;;;16.20;36.20;;;;;;8373063;28;20370;-44
2022/12/12 00:52:31;;;;;;;;;;;16.20;36.20;;;;;;8386768;28;19925;-44
2022/12/12 00:56:32;;;;;;;;;;;16.20;36.20;;;;;;8377577;28;20234;-44
2022/12/12 01:00:33;;;;;;;;;;;16.20;36.10;;;;;;8372669;28;20366;-44
2022/12/12 01:04:33;;;;;;;;;;;16.20;36.10;;;;;;8386601;28;19917;-44
2022/12/12 01:08:34;;;;;;;;;;;16.20;36.10;;;;;;8377350;28;19920;-44
2022/12/12 01:12:34;;;;;;;;;;;16.20;36.10;;;;;;8377535;28;20034;-44
2022/12/12 01:16:35;;;;;;;;;;;16.20;36.10;;;;;;8392948;28;19944;-44
2022/12/12 01:20:35;;;;;;;;;;;16.20;36.00;;;;;;8383226;28;19916;-44
2022/12/12 01:24:36;;;;;;;;;;;16.20;36.00;;;;;;8377912;28;20322;-44
2022/12/12 01:28:36;;;;;;;;;;;16.20;36.10;;;;;;8392229;28;19967;-45
2022/12/12 01:32:37;;;;;;;;;;;16.20;36.00;;;;;;8383036;28;19925;-44
2022/12/12 01:36:37;;;;;;;;;;;16.20;36.00;;;;;;8377678;28;19959;-45
2022/12/12 01:40:38;;;;;;;;;;;16.20;36.00;;;;;;8391900;28;19962;-44
2022/12/12 01:44:40;;;;;;;;;;;16.20;36.00;;;;;;8383048;28;19917;-44
2022/12/12 01:48:44;;;;;;;;;;;16.20;36.00;;;;;;8376544;28;19917;-44
2022/12/12 01:52:47;;;;;;;;;;;16.20;36.00;;;;;;8391792;28;19935;-44
2022/12/12 01:56:48;;;;;;;;;;;16.20;36.00;;;;;;8384205;28;19964;-44
2022/12/12 02:00:48;;;;;;;;;;;16.10;35.90;;;;;;8374978;28;20340;-45
2022/12/12 02:04:49;;;;;;;;;;;16.10;35.80;;;;;;8391516;28;19916;-44
2022/12/12 02:08:50;;;;;;;;;;;16.10;35.90;;;;;;8383131;28;19917;-44
2022/12/12 02:12:54;;;;;;;;;;;16.10;35.90;;;;;;8374582;28;20361;-45
2022/12/12 02:17:23;;;;;;;;;;;16.10;35.80;;;;;;8390657;28;19923;-44
2022/12/12 02:21:43;;;;;;;;;;;16.10;35.80;;;;;;8374405;28;19916;-44
2022/12/12 02:25:52;;;;;;;;;;;16.10;35.80;;;;;;8373842;28;20032;-44
2022/12/12 02:30:12;;;;;;;;;;;16.10;35.80;;;;;;8381868;28;19971;-44
2022/12/12 02:34:17;;;;;;;;;;;16.10;35.70;;;;;;8390390;28;19931;-44
2022/12/12 02:38:27;;;;;;;;;;;16.10;35.80;;;;;;8378777;28;19912;-44
2022/12/12 02:42:27;;;;;;;;;;;16.10;35.80;;;;;;8376613;28;19923;-44
2022/12/12 02:46:31;;;;;;;;;;;16.10;35.70;;;;;;8390112;28;19917;-44
2022/12/12 02:50:32;;;;;;;;;;;16.10;35.80;;;;;;8380236;28;20369;-45
2022/12/12 02:54:33;;;;;;;;;;;16.10;35.70;;;;;;8375552;28;19916;-44
2022/12/12 02:58:36;;;;;;;;;;;16.10;35.60;;;;;;8389512;28;19927;-45
2022/12/12 03:02:45;;;;;;;;;;;16.10;35.60;;;;;;8380352;28;19912;-44
2022/12/12 03:11:21;;;;;;;;;;;16.10;35.70;;;;;;8376277;28;20061;-44
2022/12/12 03:15:24;;;;;;;;;;;16.10;35.60;;;;;;8376398;28;19916;-44
2022/12/12 03:19:27;;;;;;;;;;;16.10;36.20;;;;;;8388854;28;20002;-45
2022/12/12 03:23:33;;;;;;;;;;;16.10;35.60;;;;;;8378735;28;20003;-45
2022/12/12 03:27:39;;;;;;;;;;;16.10;35.60;;;;;;8374800;28;20011;-45
2022/12/12 03:31:44;;;;;;;;;;;16.10;35.60;;;;;;8387915;28;19932;-44
2022/12/12 03:35:46;;;;;;;;;;;16.10;35.60;;;;;;8380053;28;19917;-44
2022/12/12 03:39:49;;;;;;;;;;;16.00;35.60;;;;;;8372433;28;20284;-44
2022/12/12 03:43:56;;;;;;;;;;;16.10;35.60;;;;;;8372742;28;20285;-44
2022/12/12 03:48:03;;;;;;;;;;;16.00;35.60;;;;;;8379143;28;19913;-44
2022/12/12 03:52:06;;;;;;;;;;;16.00;35.60;;;;;;8388159;28;19928;-44
2022/12/12 03:56:16;;;;;;;;;;;16.00;35.60;;;;;;8374601;28;19921;-44
2022/12/12 04:00:17;;;;;;;;;;;16.10;35.60;;;;;;8375801;28;20014;-44
2022/12/12 04:04:23;;;;;;;;;;;16.00;35.50;;;;;;8387786;28;19917;-44
2022/12/12 04:08:24;;;;;;;;;;;16.00;35.60;;;;;;8376596;28;19944;-45
2022/12/12 04:16:59;;;;;;;;;;;16.00;35.60;;;;;;8371678;28;19927;-44
2022/12/12 04:25:31;;;;;;;;;;;16.00;35.60;;;;;;8387453;28;19967;-44
2022/12/12 04:29:34;;;;;;;;;;;16.10;35.60;;;;;;8377603;28;19966;-43
2022/12/12 04:33:39;;;;;;;;;;;16.10;35.50;;;;;;8372848;28;19959;-43
2022/12/12 04:37:46;;;;;;;;;;;16.10;35.40;;;;;;8387443;28;19919;-46
2022/12/12 04:41:48;;;;;;;;;;;16.10;35.40;;;;;;8379365;28;19923;-44
2022/12/12 04:45:50;;;;;;;;;;;16.10;35.40;;;;;;8374926;28;19913;-42
2022/12/12 04:49:51;;;;;;;;;;;16.20;35.50;;;;;;8393806;28;19970;-44
2022/12/12 04:53:55;;;;;;;;;;;16.20;35.50;;;;;;8386415;28;19921;-44
2022/12/12 04:57:56;;;;;;;;;;;16.20;35.60;;;;;;8377477;28;20003;-44
2022/12/12 05:02:04;;;;;;;;;;;16.20;35.60;;;;;;8382795;28;19917;-44
2022/12/12 05:06:06;;;;;;;;;;;16.20;35.30;;;;;;8358479;28;19923;-45
2022/12/12 05:10:11;;;;;;;;;;;16.20;35.40;;;;;;8368316;28;20369;-44
2022/12/12 05:14:14;;;;;;;;;;;16.20;35.40;;;;;;8368440;28;19924;-43
2022/12/12 05:18:14;;;;;;;;;;;16.20;35.30;;;;;;8368900;28;19913;-44
2022/12/12 05:22:15;;;;;;;;;;;16.20;35.40;;;;;;8367758;28;19920;-44
2022/12/12 05:26:20;;;;;;;;;;;16.20;35.30;;;;;;8368591;28;20366;-44
2022/12/12 05:30:21;;;;;;;;;;;16.20;35.30;;;;;;8368057;28;19965;-44
2022/12/12 05:34:21;;;;;;;;;;;16.20;35.30;;;;;;8367852;28;19924;-44
2022/12/12 05:38:22;;;;;;;;;;;16.10;35.40;;;;;;8368037;28;19987;-43
2022/12/12 05:42:22;;;;;;;;;;;16.10;35.40;;;;;;8367657;28;20285;-44
2022/12/12 05:46:23;;;;;;;;;;;16.10;35.40;;;;;;8367120;28;19924;-43
2022/12/12 05:50:24;;;;;;;;;;;16.00;35.60;;;;;;8367765;28;19923;-43
2022/12/12 05:54:24;;;;;;;;;;;16.00;35.50;;;;;;8367440;28;19924;-43
2022/12/12 05:58:25;;;;;;;;;;;16.00;35.60;;;;;;8366119;28;19923;-44
2022/12/12 06:02:25;;;;;;;;;;;16.00;35.60;;;;;;8367103;28;19920;-44
2022/12/12 06:06:25;;;;;;;;;;;16.00;35.60;;;;;;8367139;28;19921;-44
2022/12/12 06:10:26;;;;;;;;;;;16.00;35.70;;;;;;8366387;28;19921;-44
2022/12/12 06:14:26;;;;;;;;;;;16.10;35.60;;;;;;8367028;28;20004;-44
2022/12/12 06:18:27;;;;;;;;;;;16.10;35.50;;;;;;8366954;28;19917;-44
2022/12/12 06:22:27;;;;;;;;;;;16.10;35.50;;;;;;8365610;28;19916;-44
2022/12/12 06:26:28;;;;;;;;;;;16.20;35.60;;;;;;8366337;28;19917;-44
2022/12/12 06:30:28;;;;;;;;;;;16.20;35.40;;;;;;8366251;28;20388;-43
2022/12/12 06:34:29;;;;;;;;;;;16.20;35.40;;;;;;8365399;28;19925;-45
2022/12/12 06:38:30;;;;;;;;;;;16.20;35.40;;;;;;8366382;28;20385;-44
2022/12/12 06:42:30;;;;;;;;;;;16.20;35.40;;;;;;8365785;28;19917;-44
2022/12/12 06:46:30;;;;;;;;;;;16.30;35.40;;;;;;8365277;28;20354;-44
2022/12/12 06:50:31;;;;;;;;;;;16.20;35.30;;;;;;8365456;28;20378;-44
2022/12/12 06:54:31;;;;;;;;;;;16.20;35.20;;;;;;8365454;28;19951;-44
2022/12/12 06:58:32;;;;;;;;;;;16.20;35.30;;;;;;8365062;28;20362;-44
2022/12/12 07:02:32;;;;;;;;;;;16.20;35.40;;;;;;8365176;28;20001;-44
2022/12/12 07:06:33;;;;;;;;;;;16.20;35.40;;;;;;8364897;28;19912;-44
2022/12/12 07:10:34;;;;;;;;;;;16.10;35.30;;;;;;8364324;28;19928;-44
2022/12/12 07:14:36;;;;;;;;;;;16.10;35.30;;;;;;8364695;28;19936;-43
2022/12/12 07:18:37;;;;;;;;;;;16.10;35.30;;;;;;8364802;28;19923;-44
2022/12/12 07:22:37;;;;;;;;;;;16.10;35.40;;;;;;8363954;28;19917;-44
2022/12/12 07:26:38;;;;;;;;;;;16.00;35.40;;;;;;8364210;28;19923;-44
2022/12/12 07:30:45;;;;;;;;;;;16.00;35.40;;;;;;8364339;28;19918;-44
2022/12/12 07:34:46;;;;;;;;;;;16.00;35.40;;;;;;8363864;28;20304;-44
2022/12/12 07:38:46;;;;;;;;;;;16.00;35.40;;;;;;8364247;28;19913;-44
2022/12/12 07:42:47;;;;;;;;;;;16.00;35.50;;;;;;8364060;28;19917;-44
2022/12/12 07:46:47;;;;;;;;;;;16.00;35.50;;;;;;8363279;28;19924;-44
2022/12/12 07:50:49;;;;;;;;;;;16.10;35.50;;;;;;8363451;28;19913;-43
2022/12/12 07:54:49;;;;;;;;;;;16.10;35.50;;;;;;8363090;28;19994;-44
2022/12/12 07:58:50;;;;;;;;;;;16.10;35.40;;;;;;8363675;28;19913;-44
2022/12/12 08:02:50;;;;;;;;;;;16.20;35.50;;;;;;8363408;28;19917;-45
2022/12/12 08:06:51;;;;;;;;;;;16.20;35.50;;;;;;8362334;28;20392;-44
2022/12/12 08:10:51;;;;;;;;;;;16.20;35.50;;;;;;8363212;28;20332;-44
2022/12/12 08:14:52;;;;;;;;;;;16.20;35.40;;;;;;8363352;28;19913;-46
2022/12/12 08:18:53;;;;;;;;;;;16.20;35.40;;;;;;8362504;28;19917;-43
2022/12/12 08:22:54;;;;;;;;;;;16.20;35.20;;;;;;8363172;28;19917;-44
2022/12/12 08:26:54;;;;;;;;;;;16.20;35.20;;;;;;8362911;28;19917;-43
2022/12/12 08:30:54;;;;;;;;;;;16.20;35.20;;;;;;8362274;28;19940;-44
2022/12/12 08:34:55;;;;;;;;;;;16.20;35.10;;;;;;8362901;28;19924;-44
2022/12/12 08:39:25;;;;;;;;;;;16.20;35.10;;;;;;8363008;28;19924;-44
2022/12/12 08:43:25;;;;;;;;;;;16.20;35.20;;;;;;8349112;28;19921;-43
2022/12/12 08:47:26;;;;;;;;;;;16.10;35.20;;;;;;8345574;28;19944;-42
2022/12/12 08:51:26;;;;;;;;;;;16.10;35.40;;;;;;8359321;28;19925;-45
2022/12/12 08:55:27;;;;;;;;;;;16.00;35.30;;;;;;8361709;28;19919;-45
2022/12/12 08:59:27;;;;;;;;;;;16.00;35.40;;;;;;8362546;28;19917;-43
2022/12/12 09:03:28;;;;;;;;;;;16.00;35.50;;;;;;8352498;28;19924;-43
2022/12/12 09:07:28;;;;;;;;;;;16.00;35.40;;;;;;8358304;28;19916;-44
2022/12/12 09:11:29;;;;;;;;;;;16.00;35.40;;;;;;8349547;28;19983;-43
2022/12/12 09:15:29;;;;;;;;;;;16.00;35.40;;;;;;8359711;28;19919;-43
2022/12/12 09:19:30;;;;;;;;;;;16.00;35.40;;;;;;8356786;28;19917;-42
2022/12/12 09:23:30;;;;;;;;;;;16.00;35.40;;;;;;8363233;28;19916;-43
2022/12/12 09:27:31;;;;;;;;;;;16.00;35.40;;;;;;8360083;28;19921;-43
2022/12/12 09:31:31;;;;;;;;;;;16.00;35.30;;;;;;8358210;28;20015;-43
2022/12/12 09:35:32;;;;;;;;;;;16.10;35.30;;;;;;8386600;28;19936;-44
2022/12/12 09:39:32;;;;;;;;;;;16.10;35.40;;;;;;8390473;28;20311;-44
2022/12/12 09:43:35;;;;;;;;;;;16.10;35.30;;;;;;8374952;28;19916;-42
2022/12/12 09:47:41;;;;;;;;;;;16.10;35.30;;;;;;8386036;28;19925;-42
2022/12/12 09:51:44;;;;;;;;;;;16.10;35.30;;;;;;8390876;28;19920;-43
2022/12/12 09:55:53;;;;;;;;;;;16.10;35.30;;;;;;8374906;28;19916;-43
2022/12/12 09:59:57;;;;;;;;;;;16.10;35.20;;;;;;8383203;28;19919;-43
2022/12/12 10:04:04;;;;;;;;;;;16.10;35.30;;;;;;8391880;28;19923;-43
2022/12/12 10:08:20;;;;;;;;;;;16.10;35.30;;;;;;8377456;28;19947;-44
2022/12/12 10:12:21;;;;;;;;;;;16.10;35.30;;;;;;8417261;28;19928;-43
2022/12/12 10:16:22;;;;;;;;;;;16.10;35.30;;;;;;8403050;28;20006;-44
2022/12/12 10:20:24;;;;;;;;;;;16.10;35.30;;;;;;8367252;28;19913;-43
2022/12/12 10:24:28;;;;;;;;;;;16.10;35.30;;;;;;8365784;28;19916;-43
2022/12/12 10:28:29;;;;;;;;;;;16.10;35.20;;;;;;8387109;28;20369;-43
2022/12/12 10:32:35;;;;;;;;;;;16.10;35.30;;;;;;8399122;28;19924;-43
2022/12/12 10:36:45;;;;;;;;;;;16.10;35.30;;;;;;8355828;28;19947;-44
2022/12/12 10:40:58;;;;;;;;;;;16.10;35.20;;;;;;8367095;28;20402;-44
2022/12/12 10:45:06;;;;;;;;;;;16.10;35.30;;;;;;8399285;28;19971;-44
2022/12/12 10:49:14;;;;;;;;;;;16.10;35.30;;;;;;8395917;28;19920;-43
2022/12/12 10:53:15;;;;;;;;;;;16.10;35.30;;;;;;8377322;28;20054;-46
2022/12/12 10:57:20;;;;;;;;;;;16.10;35.30;;;;;;8378161;28;19916;-43
2022/12/12 11:01:32;;;;;;;;;;;16.20;35.30;;;;;;8389447;28;19921;-44
2022/12/12 11:05:34;;;;;;;;;;;16.10;35.30;;;;;;8379865;28;19913;-44
2022/12/12 11:09:36;;;;;;;;;;;16.10;35.30;;;;;;8375396;28;20016;-43
2022/12/12 11:13:45;;;;;;;;;;;16.10;35.30;;;;;;8388160;28;19939;-43
2022/12/12 11:17:48;;;;;;;;;;;16.10;35.30;;;;;;8380649;28;19922;-43
2022/12/12 11:21:49;;;;;;;;;;;16.10;35.40;;;;;;8372994;28;19952;-43
2022/12/12 11:25:54;;;;;;;;;;;16.20;35.40;;;;;;8372976;28;20380;-43
2022/12/12 11:30:02;;;;;;;;;;;16.10;35.30;;;;;;8380118;28;19917;-43
2022/12/12 11:34:04;;;;;;;;;;;16.20;35.40;;;;;;8388510;28;19925;-44
2022/12/12 11:38:16;;;;;;;;;;;16.20;35.40;;;;;;8374621;28;20277;-45
2022/12/12 11:42:24;;;;;;;;;;;16.20;35.40;;;;;;8376886;28;19970;-45
2022/12/12 11:46:24;;;;;;;;;;;16.20;35.40;;;;;;8388385;28;19917;-45
2022/12/12 11:50:26;;;;;;;;;;;16.20;35.30;;;;;;8377701;28;20468;-44
2022/12/12 11:54:30;;;;;;;;;;;16.20;35.30;;;;;;8374315;28;19924;-45
2022/12/12 11:58:35;;;;;;;;;;;16.20;35.30;;;;;;8387602;28;20016;-45
2022/12/12 12:02:54;;;;;;;;;;;16.20;35.30;;;;;;8377927;28;19926;-42
2022/12/12 12:06:57;;;;;;;;;;;16.20;35.30;;;;;;8371046;28;19923;-42
2022/12/12 12:10:57;;;;;;;;;;;16.20;35.30;;;;;;8386895;28;19921;-44
2022/12/12 12:15:04;;;;;;;;;;;16.20;35.40;;;;;;8380648;28;20296;-44
2022/12/12 12:19:23;;;;;;;;;;;16.20;35.40;;;;;;8370608;28;19944;-44
2022/12/12 12:23:30;;;;;;;;;;;16.20;35.40;;;;;;8383196;28;19924;-43
2022/12/12 12:27:44;;;;;;;;;;;16.20;35.30;;;;;;8385227;28;19920;-43
2022/12/12 12:31:50;;;;;;;;;;;16.20;35.30;;;;;;8370301;28;19932;-44
2022/12/12 12:35:50;;;;;;;;;;;16.20;35.30;;;;;;8379292;28;19959;-45
2022/12/12 12:40:09;;;;;;;;;;;16.20;35.30;;;;;;8386983;28;20015;-42
2022/12/12 12:44:29;;;;;;;;;;;16.20;35.30;;;;;;8373697;28;20003;-44
2022/12/12 12:48:33;;;;;;;;;;;16.20;35.30;;;;;;8373472;28;19913;-44
2022/12/12 12:52:42;;;;;;;;;;;16.20;35.90;;;;;;8386751;28;19925;-44
2022/12/12 12:56:48;;;;;;;;;;;16.20;36.00;;;;;;8378048;28;20463;-45
2022/12/12 13:00:52;;;;;;;;;;;16.20;35.40;;;;;;8371149;28;19943;-43
2022/12/12 13:04:58;;;;;;;;;;;16.20;35.50;;;;;;8370746;28;19962;-44
2022/12/12 13:09:12;;;;;;;;;;;16.20;35.40;;;;;;8384330;28;19917;-44
2022/12/12 13:13:13;;;;;;;;;;;16.20;35.50;;;;;;8392111;28;20367;-43
2022/12/12 13:17:16;;;;;;;;;;;16.20;35.50;;;;;;8379985;28;20018;-44
2022/12/12 13:21:33;;;;;;;;;;;16.20;35.50;;;;;;8381156;28;20361;-44
2022/12/12 13:25:40;;;;;;;;;;;16.20;35.50;;;;;;8392308;28;19916;-44
2022/12/12 13:29:52;;;;;;;;;;;16.20;35.50;;;;;;8382989;28;19923;-44
2022/12/12 13:34:04;;;;;;;;;;;16.20;35.40;;;;;;8375740;28;19925;-44
2022/12/12 13:38:15;;;;;;;;;;;16.20;35.40;;;;;;8390473;28;19924;-44
2022/12/12 13:42:16;;;;;;;;;;;16.20;35.40;;;;;;8387694;28;19952;-44
2022/12/12 13:46:18;;;;;;;;;;;16.20;36.00;;;;;;8375506;28;20050;-43
2022/12/12 13:50:21;;;;;;;;;;;16.20;35.50;;;;;;8388217;28;19917;-44
2022/12/12 13:54:21;;;;;;;;;;;16.20;35.50;;;;;;8388145;28;19924;-43
2022/12/12 13:58:33;;;;;;;;;;;16.20;35.50;;;;;;8374899;28;19931;-43
2022/12/12 14:02:40;;;;;;;;;;;16.20;35.40;;;;;;8385975;28;19917;-44
2022/12/12 14:06:40;;;;;;;;;;;16.20;35.40;;;;;;8390950;28;19913;-44
2022/12/12 14:10:42;;;;;;;;;;;16.20;35.40;;;;;;8349815;28;19928;-44
2022/12/12 14:14:50;;;;;;;;;;;16.20;35.40;;;;;;8373648;28;20222;-44
2022/12/12 14:18:50;;;;;;;;;;;16.20;35.40;;;;;;8390436;28;19913;-42
2022/12/12 14:22:54;;;;;;;;;;;16.20;35.40;;;;;;8374439;28;19919;-43
2022/12/12 14:26:54;;;;;;;;;;;16.20;35.40;;;;;;8382721;28;19924;-44
2022/12/12 14:31:04;;;;;;;;;;;16.20;35.40;;;;;;8390569;28;20325;-45
2022/12/12 14:35:23;;;;;;;;;;;16.20;35.40;;;;;;8376475;28;19928;-45
2022/12/12 14:39:30;;;;;;;;;;;16.20;35.40;;;;;;8378172;28;19966;-44
2022/12/12 14:43:34;;;;;;;;;;;16.20;35.40;;;;;;8390257;28;20282;-44
2022/12/12 14:47:35;;;;;;;;;;;16.20;35.40;;;;;;8380209;28;20019;-45
2022/12/12 14:51:35;;;;;;;;;;;16.20;35.40;;;;;;8376018;28;19947;-44
2022/12/12 14:55:36;;;;;;;;;;;16.20;35.30;;;;;;8389671;28;19967;-43
2022/12/12 14:59:38;;;;;;;;;;;16.20;35.90;;;;;;8380233;28;19927;-44
2022/12/12 15:03:43;;;;;;;;;;;16.20;35.40;;;;;;8374974;28;19913;-44
2022/12/12 15:07:43;;;;;;;;;;;16.20;35.40;;;;;;8389437;28;19925;-45
2022/12/12 15:11:45;;;;;;;;;;;16.20;35.40;;;;;;8380740;28;19981;-44
2022/12/12 15:15:48;;;;;;;;;;;16.20;35.40;;;;;;8373668;28;19971;-45
2022/12/12 15:19:51;;;;;;;;;;;16.20;35.50;;;;;;8389149;28;19916;-45
2022/12/12 15:23:51;;;;;;;;;;;16.20;35.40;;;;;;8381534;28;19913;-45
2022/12/12 15:27:53;;;;;;;;;;;16.20;35.50;;;;;;8371511;28;19951;-43
2022/12/12 15:32:01;;;;;;;;;;;16.20;35.40;;;;;;8389056;28;19927;-45
2022/12/12 15:36:03;;;;;;;;;;;16.20;35.40;;;;;;8382298;28;19990;-44
2022/12/12 15:40:10;;;;;;;;;;;16.20;35.40;;;;;;8371952;28;20358;-45
2022/12/12 15:44:15;;;;;;;;;;;16.20;35.40;;;;;;8386148;28;19923;-45
2022/12/12 15:48:17;;;;;;;;;;;16.20;35.30;;;;;;8384150;28;19923;-44
2022/12/12 15:52:17;;;;;;;;;;;16.20;35.30;;;;;;8371665;28;20014;-44
2022/12/12 15:56:18;;;;;;;;;;;16.20;35.30;;;;;;8384854;28;19986;-43
2022/12/12 16:00:21;;;;;;;;;;;16.20;35.30;;;;;;8383745;28;19916;-44
2022/12/12 16:04:24;;;;;;;;;;;16.20;35.40;;;;;;8371089;28;19916;-44
2022/12/12 16:08:31;;;;;;;;;;;16.20;35.30;;;;;;8383699;28;19913;-44
2022/12/12 16:12:51;;;;;;;;;;;16.20;35.30;;;;;;8385845;28;20305;-44
2022/12/12 16:16:59;;;;;;;;;;;16.20;35.30;;;;;;8388090;28;19917;-44
2022/12/12 16:21:00;;;;;;;;;;;16.20;35.40;;;;;;8381208;28;19920;-45
2022/12/12 16:25:15;;;;;;;;;;;16.20;35.40;;;;;;8370701;28;19959;-45
2022/12/12 16:29:16;;;;;;;;;;;16.20;35.40;;;;;;8384222;28;19985;-44
2022/12/12 16:33:23;;;;;;;;;;;16.20;35.40;;;;;;8383023;28;19994;-44
2022/12/12 16:37:23;;;;;;;;;;;16.20;35.30;;;;;;8370724;28;19970;-44
2022/12/12 16:41:24;;;;;;;;;;;16.20;35.30;;;;;;8386837;28;19917;-45
2022/12/12 16:45:24;;;;;;;;;;;16.20;35.30;;;;;;8390743;28;19913;-46
2022/12/12 16:49:25;;;;;;;;;;;16.20;35.30;;;;;;8377271;28;19916;-44
2022/12/12 16:53:26;;;;;;;;;;;16.20;35.40;;;;;;8389032;28;19929;-44
2022/12/12 16:57:26;;;;;;;;;;;16.20;35.30;;;;;;8390930;28;19921;-44
2022/12/12 17:01:36;;;;;;;;;;;16.20;35.80;;;;;;8375687;28;19920;-43
2022/12/12 17:05:37;;;;;;;;;;;16.20;35.30;;;;;;8384945;28;19924;-44
2022/12/12 17:09:38;;;;;;;;;;;16.20;35.30;;;;;;8384584;28;19971;-46
2022/12/12 17:13:41;;;;;;;;;;;16.20;35.30;;;;;;8340863;28;20415;-44
2022/12/12 17:17:42;;;;;;;;;;;16.20;35.40;;;;;;8368652;28;19913;-43
2022/12/12 17:21:42;;;;;;;;;;;16.20;35.30;;;;;;8368511;28;19929;-43
2022/12/12 17:25:43;;;;;;;;;;;16.20;35.40;;;;;;8367753;28;19916;-43
2022/12/12 17:29:43;;;;;;;;;;;16.20;35.30;;;;;;8368417;28;20028;-44
2022/12/12 17:33:44;;;;;;;;;;;16.20;35.40;;;;;;8367876;28;20432;-44
2022/12/12 17:37:44;;;;;;;;;;;16.20;35.30;;;;;;8367624;28;19913;-45
2022/12/12 17:41:45;;;;;;;;;;;16.20;35.40;;;;;;8368038;28;19923;-44
2022/12/12 17:45:55;;;;;;;;;;;16.20;35.30;;;;;;8367665;28;19920;-44
2022/12/12 17:49:55;;;;;;;;;;;16.20;35.30;;;;;;8367310;28;19947;-44
2022/12/12 17:53:58;;;;;;;;;;;16.20;35.30;;;;;;8366257;28;20572;-44
2022/12/12 17:57:58;;;;;;;;;;;16.20;35.30;;;;;;8367091;28;19920;-44
2022/12/12 18:01:59;;;;;;;;;;;16.20;35.30;;;;;;8367292;28;20393;-44
2022/12/12 18:05:59;;;;;;;;;;;16.20;35.30;;;;;;8366967;28;19924;-44
2022/12/12 18:10:00;;;;;;;;;;;16.20;35.30;;;;;;8366636;28;19928;-45
2022/12/12 18:14:02;;;;;;;;;;;16.20;35.20;;;;;;8366516;28;19978;-45
2022/12/12 18:18:02;;;;;;;;;;;16.20;35.30;;;;;;8366735;28;19920;-44
2022/12/12 18:22:02;;;;;;;;;;;16.20;35.30;;;;;;8365906;28;19917;-45
2022/12/12 18:26:04;;;;;;;;;;;16.20;35.30;;;;;;8366597;28;20365;-44
2022/12/12 18:30:05;;;;;;;;;;;16.20;35.30;;;;;;8366497;28;20289;-45
2022/12/12 18:34:06;;;;;;;;;;;16.20;35.30;;;;;;8365628;28;19937;-45
2022/12/12 18:38:06;;;;;;;;;;;16.20;35.20;;;;;;8366356;28;19917;-45
2022/12/12 18:42:07;;;;;;;;;;;16.20;35.20;;;;;;8366176;28;19967;-44
2022/12/12 18:46:12;;;;;;;;;;;16.20;35.30;;;;;;8365250;28;19967;-45
2022/12/12 18:50:12;;;;;;;;;;;16.20;35.30;;;;;;8365659;28;19923;-46
2022/12/12 18:54:13;;;;;;;;;;;16.20;35.20;;;;;;8365646;28;19933;-45
2022/12/12 18:58:13;;;;;;;;;;;16.20;35.20;;;;;;8365451;28;20362;-45
2022/12/12 19:02:14;;;;;;;;;;;16.20;35.10;;;;;;8365422;28;20003;-44
2022/12/12 19:06:17;;;;;;;;;;;16.20;35.20;;;;;;8365370;28;20005;-44
2022/12/12 19:10:17;;;;;;;;;;;16.20;35.20;;;;;;8364825;28;19921;-44
2022/12/12 19:14:19;;;;;;;;;;;16.20;35.20;;;;;;8364910;28;20370;-45
2022/12/12 19:18:19;;;;;;;;;;;16.20;35.20;;;;;;8365281;28;19970;-44
2022/12/12 19:22:20;;;;;;;;;;;16.20;35.20;;;;;;8364281;28;20440;-44
2022/12/12 19:26:25;;;;;;;;;;;16.20;35.20;;;;;;8364571;28;20410;-44
2022/12/12 19:30:27;;;;;;;;;;;16.20;35.20;;;;;;8364832;28;19917;-44
2022/12/12 19:34:27;;;;;;;;;;;16.20;35.20;;;;;;8363721;28;19921;-44
2022/12/12 19:38:29;;;;;;;;;;;16.20;35.20;;;;;;8364376;28;19991;-44
2022/12/12 19:42:29;;;;;;;;;;;16.20;35.20;;;;;;8364302;28;19992;-44
2022/12/12 19:46:30;;;;;;;;;;;16.20;35.20;;;;;;8363532;28;19924;-44
2022/12/12 19:50:31;;;;;;;;;;;16.20;35.20;;;;;;8363874;28;19938;-44
2022/12/12 19:54:31;;;;;;;;;;;16.20;35.10;;;;;;8363962;28;19978;-44
2022/12/12 19:58:32;;;;;;;;;;;16.20;35.10;;;;;;8363498;28;19917;-44
2022/12/12 20:02:34;;;;;;;;;;;16.20;35.10;;;;;;8363849;28;20433;-45
2022/12/12 20:06:40;;;;;;;;;;;16.20;35.20;;;;;;8364096;28;20386;-44
2022/12/12 20:10:40;;;;;;;;;;;16.20;35.20;;;;;;8360131;28;20342;-44
2022/12/12 20:14:40;;;;;;;;;;;16.20;35.20;;;;;;8362789;28;19925;-44
2022/12/12 20:18:41;;;;;;;;;;;16.20;35.20;;;;;;8363366;28;19917;-44
2022/12/12 20:22:42;;;;;;;;;;;16.20;35.10;;;;;;8362588;28;20046;-44
2022/12/12 20:26:42;;;;;;;;;;;16.20;35.10;;;;;;8363185;28;19917;-44
2022/12/12 20:30:43;;;;;;;;;;;16.20;35.20;;;;;;8363110;28;20262;-44
2022/12/12 20:34:44;;;;;;;;;;;16.20;35.20;;;;;;8362480;28;20443;-44
2022/12/12 20:38:45;;;;;;;;;;;16.20;35.20;;;;;;8363069;28;19917;-45
2022/12/12 20:42:45;;;;;;;;;;;16.20;35.10;;;;;;8362760;28;19916;-45
2022/12/12 20:46:46;;;;;;;;;;;16.20;35.20;;;;;;8362300;28;19917;-44
2022/12/12 20:50:46;;;;;;;;;;;16.20;35.10;;;;;;8362826;28;19916;-44
2022/12/12 20:54:47;;;;;;;;;;;16.20;35.10;;;;;;8362689;28;19952;-44
2022/12/12 20:58:50;;;;;;;;;;;16.20;35.10;;;;;;8362312;28;19917;-44
2022/12/12 21:02:51;;;;;;;;;;;16.20;35.10;;;;;;8362389;28;19924;-45
2022/12/12 21:06:51;;;;;;;;;;;16.20;35.00;;;;;;8362082;28;19912;-42
2022/12/12 21:10:52;;;;;;;;;;;16.20;35.00;;;;;;8362129;28;19924;-44
2022/12/12 21:14:52;;;;;;;;;;;16.20;35.00;;;;;;8362116;28;19948;-43
2022/12/12 21:18:54;;;;;;;;;;;16.20;35.00;;;;;;8362159;28;20317;-44
2022/12/12 21:22:54;;;;;;;;;;;16.20;35.00;;;;;;8362504;28;19917;-45
2022/12/12 21:26:55;;;;;;;;;;;16.20;35.00;;;;;;8365385;28;20425;-44
2022/12/12 21:30:55;;;;;;;;;;;16.20;35.00;;;;;;8367922;28;19924;-43
2022/12/12 21:34:56;;;;;;;;;;;16.10;35.00;;;;;;8368284;28;20015;-43
2022/12/12 21:38:57;;;;;;;;;;;16.10;35.10;;;;;;8368158;28;19921;-44
2022/12/12 21:42:57;;;;;;;;;;;16.10;35.10;;;;;;8367499;28;19924;-43
2022/12/12 21:46:58;;;;;;;;;;;16.10;35.00;;;;;;8367622;28;19917;-43
2022/12/12 21:51:00;;;;;;;;;;;16.10;35.10;;;;;;8367797;28;19916;-44
2022/12/12 21:55:00;;;;;;;;;;;16.00;35.00;;;;;;8367464;28;19963;-43
2022/12/12 21:59:02;;;;;;;;;;;16.00;35.10;;;;;;8367608;28;19917;-43
2022/12/12 22:03:02;;;;;;;;;;;16.00;35.00;;;;;;8367358;28;19921;-44
2022/12/12 22:07:03;;;;;;;;;;;16.00;35.00;;;;;;8366789;28;19913;-44
2022/12/12 22:11:03;;;;;;;;;;;16.00;35.10;;;;;;8367288;28;19975;-44
2022/12/12 22:15:04;;;;;;;;;;;16.10;35.10;;;;;;8367374;28;19974;-44
2022/12/12 22:19:06;;;;;;;;;;;16.00;35.00;;;;;;8366534;28;19995;-45
2022/12/12 22:23:06;;;;;;;;;;;16.00;35.10;;;;;;8367075;28;19925;-43
2022/12/12 22:27:07;;;;;;;;;;;16.00;35.00;;;;;;8366741;28;19920;-45
2022/12/12 22:31:07;;;;;;;;;;;16.00;35.00;;;;;;8366051;28;19916;-43
2022/12/12 22:35:08;;;;;;;;;;;16.00;35.00;;;;;;8366499;28;19944;-43
2022/12/12 22:39:12;;;;;;;;;;;16.00;35.00;;;;;;8365789;28;20330;-45
2022/12/12 22:43:12;;;;;;;;;;;16.00;35.00;;;;;;8365679;28;19917;-42
2022/12/12 22:47:13;;;;;;;;;;;16.00;35.00;;;;;;8365944;28;19916;-45
2022/12/12 22:51:14;;;;;;;;;;;16.00;35.00;;;;;;8372169;28;19917;-46
2022/12/12 22:55:15;;;;;;;;;;;16.00;35.00;;;;;;8398628;28;19920;-44
2022/12/12 22:59:15;;;;;;;;;;;16.00;35.00;;;;;;8380710;28;19948;-43
2022/12/12 23:03:16;;;;;;;;;;;16.00;35.00;;;;;;8372707;28;19940;-43
2022/12/12 23:07:16;;;;;;;;;;;16.00;34.90;;;;;;8363439;28;19917;-43
2022/12/12 23:11:17;;;;;;;;;;;16.00;34.90;;;;;;8364275;28;19978;-42
2022/12/12 23:15:18;;;;;;;;;;;16.00;34.90;;;;;;8365123;28;19921;-43
2022/12/12 23:19:20;;;;;;;;;;;16.00;34.90;;;;;;8364560;28;19923;-43
2022/12/12 23:23:20;;;;;;;;;;;16.00;34.90;;;;;;8364861;28;19917;-44
2022/12/12 23:27:20;;;;;;;;;;;15.90;34.80;;;;;;8364548;28;19924;-43
2022/12/12 23:31:22;;;;;;;;;;;15.90;34.80;;;;;;8363905;28;19921;-43
2022/12/12 23:35:23;;;;;;;;;;;15.90;34.80;;;;;;8364712;28;20468;-43
2022/12/12 23:39:24;;;;;;;;;;;15.90;34.80;;;;;;8364235;28;19920;-43
2022/12/12 23:43:26;;;;;;;;;;;15.90;34.80;;;;;;8363634;28;19923;-43